sensor_id;sensor_type;location;lat;lon;timestamp;P1;durP1;ratioP1;P2;durP2;ratioP2
54929;SDS011;40833;53.238;6.576;2024-03-23T00:52:58;38.53;;;6.67;;
54929;SDS011;40833;53.238;6.576;2024-03-23T00:55:24;37.73;;;6.40;;
54929;SDS011;40833;53.238;6.576;2024-03-23T00:57:50;44.87;;;6.67;;
54929;SDS011;40833;53.238;6.576;2024-03-23T01:00:15;54.53;;;8.53;;
54929;SDS011;40833;53.238;6.576;2024-03-23T01:02:41;45.13;;;7.63;;
54929;SDS011;40833;53.238;6.576;2024-03-23T01:05:07;35.80;;;6.23;;
54929;SDS011;40833;53.238;6.576;2024-03-23T01:07:33;39.20;;;6.37;;
54929;SDS011;40833;53.238;6.576;2024-03-23T01:09:58;39.10;;;5.90;;
54929;SDS011;40833;53.238;6.576;2024-03-23T01:12:24;26.20;;;5.20;;
54929;SDS011;40833;53.238;6.576;2024-03-23T01:14:49;38.87;;;6.27;;
54929;SDS011;40833;53.238;6.576;2024-03-23T01:17:15;40.77;;;6.40;;
54929;SDS011;40833;53.238;6.576;2024-03-23T01:19:41;35.70;;;6.43;;
54929;SDS011;40833;53.238;6.576;2024-03-23T01:22:07;35.23;;;6.00;;
54929;SDS011;40833;53.238;6.576;2024-03-23T01:24:35;47.17;;;7.47;;
54929;SDS011;40833;53.238;6.576;2024-03-23T01:27:01;32.60;;;6.47;;
54929;SDS011;40833;53.238;6.576;2024-03-23T01:29:27;44.23;;;5.67;;
54929;SDS011;40833;53.238;6.576;2024-03-23T01:31:52;41.37;;;6.20;;
54929;SDS011;40833;53.238;6.576;2024-03-23T01:34:18;42.90;;;6.63;;
54929;SDS011;40833;53.238;6.576;2024-03-23T01:36:45;44.07;;;7.00;;
54929;SDS011;40833;53.238;6.576;2024-03-23T01:39:11;45.17;;;6.03;;
54929;SDS011;40833;53.238;6.576;2024-03-23T01:41:37;32.77;;;4.93;;
54929;SDS011;40833;53.238;6.576;2024-03-23T01:44:07;34.27;;;6.40;;
54929;SDS011;40833;53.238;6.576;2024-03-23T01:46:33;42.30;;;6.73;;
54929;SDS011;40833;53.238;6.576;2024-03-23T01:49:00;37.40;;;5.80;;
54929;SDS011;40833;53.238;6.576;2024-03-23T01:51:26;38.07;;;5.57;;
54929;SDS011;40833;53.238;6.576;2024-03-23T01:53:53;38.17;;;6.97;;
54929;SDS011;40833;53.238;6.576;2024-03-23T01:56:21;36.33;;;6.03;;
54929;SDS011;40833;53.238;6.576;2024-03-23T01:58:47;45.03;;;6.40;;
54929;SDS011;40833;53.238;6.576;2024-03-23T02:01:12;34.27;;;5.73;;
54929;SDS011;40833;53.238;6.576;2024-03-23T02:03:38;37.43;;;5.73;;
54929;SDS011;40833;53.238;6.576;2024-03-23T02:06:03;36.83;;;6.43;;
54929;SDS011;40833;53.238;6.576;2024-03-23T02:08:32;29.87;;;5.57;;
54929;SDS011;40833;53.238;6.576;2024-03-23T02:10:58;36.53;;;5.63;;
54929;SDS011;40833;53.238;6.576;2024-03-23T02:13:24;44.30;;;6.33;;
54929;SDS011;40833;53.238;6.576;2024-03-23T02:15:49;29.27;;;6.07;;
54929;SDS011;40833;53.238;6.576;2024-03-23T02:18:15;34.97;;;5.10;;
54929;SDS011;40833;53.238;6.576;2024-03-23T02:20:41;33.63;;;5.50;;
54929;SDS011;40833;53.238;6.576;2024-03-23T02:23:12;33.17;;;4.73;;
54929;SDS011;40833;53.238;6.576;2024-03-23T02:25:42;32.30;;;6.40;;
54929;SDS011;40833;53.238;6.576;2024-03-23T02:28:08;36.43;;;6.33;;
54929;SDS011;40833;53.238;6.576;2024-03-23T02:30:34;34.50;;;4.90;;
54929;SDS011;40833;53.238;6.576;2024-03-23T02:33:00;34.37;;;4.57;;
54929;SDS011;40833;53.238;6.576;2024-03-23T02:35:25;35.77;;;5.20;;
54929;SDS011;40833;53.238;6.576;2024-03-23T02:37:51;29.80;;;6.07;;
54929;SDS011;40833;53.238;6.576;2024-03-23T02:40:18;32.80;;;5.30;;
54929;SDS011;40833;53.238;6.576;2024-03-23T02:42:44;34.53;;;4.97;;
54929;SDS011;40833;53.238;6.576;2024-03-23T02:45:10;35.03;;;4.57;;
54929;SDS011;40833;53.238;6.576;2024-03-23T02:47:36;35.53;;;4.47;;
54929;SDS011;40833;53.238;6.576;2024-03-23T02:50:01;33.90;;;4.17;;
54929;SDS011;40833;53.238;6.576;2024-03-23T02:52:27;33.73;;;5.50;;
54929;SDS011;40833;53.238;6.576;2024-03-23T02:54:53;34.37;;;4.13;;
54929;SDS011;40833;53.238;6.576;2024-03-23T02:57:18;29.23;;;4.70;;
54929;SDS011;40833;53.238;6.576;2024-03-23T02:59:44;41.03;;;3.93;;
54929;SDS011;40833;53.238;6.576;2024-03-23T03:02:10;30.97;;;5.87;;
54929;SDS011;40833;53.238;6.576;2024-03-23T03:04:36;28.23;;;5.30;;
54929;SDS011;40833;53.238;6.576;2024-03-23T03:07:02;25.50;;;4.07;;
54929;SDS011;40833;53.238;6.576;2024-03-23T03:09:29;28.57;;;4.83;;
54929;SDS011;40833;53.238;6.576;2024-03-23T03:11:55;29.17;;;4.97;;
54929;SDS011;40833;53.238;6.576;2024-03-23T03:14:20;35.17;;;4.60;;
54929;SDS011;40833;53.238;6.576;2024-03-23T03:16:46;34.33;;;5.17;;
54929;SDS011;40833;53.238;6.576;2024-03-23T03:19:12;29.40;;;3.77;;
54929;SDS011;40833;53.238;6.576;2024-03-23T03:21:37;24.20;;;3.67;;
54929;SDS011;40833;53.238;6.576;2024-03-23T03:24:03;24.87;;;4.23;;
54929;SDS011;40833;53.238;6.576;2024-03-23T03:26:31;29.90;;;4.40;;
54929;SDS011;40833;53.238;6.576;2024-03-23T03:28:57;30.63;;;3.30;;
54929;SDS011;40833;53.238;6.576;2024-03-23T03:31:22;30.17;;;4.87;;
54929;SDS011;40833;53.238;6.576;2024-03-23T03:33:49;25.93;;;3.87;;
54929;SDS011;40833;53.238;6.576;2024-03-23T03:36:16;22.00;;;3.70;;
54929;SDS011;40833;53.238;6.576;2024-03-23T03:38:41;31.57;;;3.33;;
54929;SDS011;40833;53.238;6.576;2024-03-23T03:41:07;29.60;;;2.93;;
54929;SDS011;40833;53.238;6.576;2024-03-23T03:43:33;23.03;;;2.83;;
54929;SDS011;40833;53.238;6.576;2024-03-23T03:45:59;21.73;;;3.10;;
54929;SDS011;40833;53.238;6.576;2024-03-23T03:48:25;28.97;;;5.00;;
54929;SDS011;40833;53.238;6.576;2024-03-23T03:50:51;31.67;;;2.97;;
54929;SDS011;40833;53.238;6.576;2024-03-23T03:53:18;29.10;;;4.00;;
54929;SDS011;40833;53.238;6.576;2024-03-23T03:55:44;21.87;;;3.60;;
54929;SDS011;40833;53.238;6.576;2024-03-23T03:58:10;26.37;;;3.30;;
54929;SDS011;40833;53.238;6.576;2024-03-23T04:00:35;28.37;;;4.10;;
54929;SDS011;40833;53.238;6.576;2024-03-23T04:03:01;31.73;;;4.07;;
54929;SDS011;40833;53.238;6.576;2024-03-23T04:05:28;26.47;;;4.73;;
54929;SDS011;40833;53.238;6.576;2024-03-23T04:07:53;24.73;;;3.27;;
54929;SDS011;40833;53.238;6.576;2024-03-23T04:10:19;28.17;;;3.90;;
54929;SDS011;40833;53.238;6.576;2024-03-23T04:12:45;25.70;;;3.77;;
54929;SDS011;40833;53.238;6.576;2024-03-23T04:15:12;23.07;;;3.63;;
54929;SDS011;40833;53.238;6.576;2024-03-23T04:17:37;20.20;;;3.63;;
54929;SDS011;40833;53.238;6.576;2024-03-23T04:20:03;25.47;;;3.83;;
54929;SDS011;40833;53.238;6.576;2024-03-23T04:22:33;23.03;;;3.23;;
54929;SDS011;40833;53.238;6.576;2024-03-23T04:24:59;28.97;;;4.03;;
54929;SDS011;40833;53.238;6.576;2024-03-23T04:27:31;29.77;;;3.35;;
54929;SDS011;40833;53.238;6.576;2024-03-23T04:30:00;27.23;;;4.67;;
54929;SDS011;40833;53.238;6.576;2024-03-23T04:32:26;28.47;;;3.77;;
54929;SDS011;40833;53.238;6.576;2024-03-23T04:34:53;23.37;;;3.03;;
54929;SDS011;40833;53.238;6.576;2024-03-23T04:37:19;21.93;;;3.20;;
54929;SDS011;40833;53.238;6.576;2024-03-23T04:39:48;34.07;;;4.03;;
54929;SDS011;40833;53.238;6.576;2024-03-23T04:42:17;22.63;;;3.60;;
54929;SDS011;40833;53.238;6.576;2024-03-23T04:44:42;27.23;;;3.60;;
54929;SDS011;40833;53.238;6.576;2024-03-23T04:47:08;26.17;;;3.70;;
54929;SDS011;40833;53.238;6.576;2024-03-23T04:49:34;27.43;;;3.27;;
54929;SDS011;40833;53.238;6.576;2024-03-23T04:52:02;21.17;;;2.87;;
54929;SDS011;40833;53.238;6.576;2024-03-23T04:54:29;18.63;;;2.63;;
54929;SDS011;40833;53.238;6.576;2024-03-23T04:56:55;24.63;;;3.10;;
54929;SDS011;40833;53.238;6.576;2024-03-23T04:59:21;28.70;;;3.37;;
54929;SDS011;40833;53.238;6.576;2024-03-23T05:01:46;28.63;;;3.20;;
54929;SDS011;40833;53.238;6.576;2024-03-23T05:04:12;28.70;;;3.30;;
54929;SDS011;40833;53.238;6.576;2024-03-23T05:06:38;31.37;;;3.60;;
54929;SDS011;40833;53.238;6.576;2024-03-23T05:09:03;21.30;;;2.93;;
54929;SDS011;40833;53.238;6.576;2024-03-23T05:11:35;32.23;;;5.23;;
54929;SDS011;40833;53.238;6.576;2024-03-23T05:14:01;21.83;;;3.70;;
54929;SDS011;40833;53.238;6.576;2024-03-23T05:16:28;20.83;;;3.20;;
54929;SDS011;40833;53.238;6.576;2024-03-23T05:18:53;25.87;;;3.17;;
54929;SDS011;40833;53.238;6.576;2024-03-23T05:21:19;22.90;;;2.90;;
54929;SDS011;40833;53.238;6.576;2024-03-23T05:23:45;33.47;;;2.90;;
54929;SDS011;40833;53.238;6.576;2024-03-23T05:26:10;21.20;;;2.60;;
54929;SDS011;40833;53.238;6.576;2024-03-23T05:28:36;28.90;;;4.50;;
54929;SDS011;40833;53.238;6.576;2024-03-23T05:31:02;22.60;;;2.37;;
54929;SDS011;40833;53.238;6.576;2024-03-23T05:33:28;25.40;;;3.03;;
54929;SDS011;40833;53.238;6.576;2024-03-23T05:35:57;23.67;;;2.63;;
54929;SDS011;40833;53.238;6.576;2024-03-23T05:38:23;17.50;;;2.90;;
54929;SDS011;40833;53.238;6.576;2024-03-23T05:40:55;17.50;;;2.37;;
54929;SDS011;40833;53.238;6.576;2024-03-23T05:43:25;25.63;;;2.63;;
54929;SDS011;40833;53.238;6.576;2024-03-23T05:45:58;26.97;;;3.50;;
54929;SDS011;40833;53.238;6.576;2024-03-23T05:48:25;29.60;;;3.07;;
54929;SDS011;40833;53.238;6.576;2024-03-23T05:50:51;14.23;;;2.07;;
54929;SDS011;40833;53.238;6.576;2024-03-23T05:53:17;18.20;;;2.20;;
54929;SDS011;40833;53.238;6.576;2024-03-23T05:55:45;24.87;;;2.90;;
54929;SDS011;40833;53.238;6.576;2024-03-23T05:58:17;26.60;;;3.17;;
54929;SDS011;40833;53.238;6.576;2024-03-23T06:00:43;19.97;;;3.00;;
54929;SDS011;40833;53.238;6.576;2024-03-23T06:03:09;16.77;;;2.37;;
54929;SDS011;40833;53.238;6.576;2024-03-23T06:05:36;17.43;;;1.70;;
54929;SDS011;40833;53.238;6.576;2024-03-23T06:08:02;16.57;;;2.67;;
54929;SDS011;40833;53.238;6.576;2024-03-23T06:10:28;16.73;;;2.40;;
54929;SDS011;40833;53.238;6.576;2024-03-23T06:12:54;23.73;;;2.30;;
54929;SDS011;40833;53.238;6.576;2024-03-23T06:15:19;15.33;;;1.83;;
54929;SDS011;40833;53.238;6.576;2024-03-23T06:17:45;17.70;;;2.13;;
54929;SDS011;40833;53.238;6.576;2024-03-23T06:22:57;12.20;;;2.00;;
54929;SDS011;40833;53.238;6.576;2024-03-23T06:25:23;21.97;;;2.07;;
54929;SDS011;40833;53.238;6.576;2024-03-23T06:27:52;21.00;;;2.03;;
54929;SDS011;40833;53.238;6.576;2024-03-23T06:30:21;14.00;;;1.97;;
54929;SDS011;40833;53.238;6.576;2024-03-23T06:32:51;13.93;;;1.13;;
54929;SDS011;40833;53.238;6.576;2024-03-23T06:35:38;15.87;;;2.03;;
54929;SDS011;40833;53.238;6.576;2024-03-23T06:38:09;18.87;;;2.40;;
54929;SDS011;40833;53.238;6.576;2024-03-23T06:40:38;18.70;;;1.77;;
54929;SDS011;40833;53.238;6.576;2024-03-23T06:43:03;15.87;;;2.17;;
54929;SDS011;40833;53.238;6.576;2024-03-23T06:45:33;11.07;;;1.50;;
54929;SDS011;40833;53.238;6.576;2024-03-23T06:47:59;23.13;;;2.40;;
54929;SDS011;40833;53.238;6.576;2024-03-23T06:50:34;16.13;;;1.40;;
54929;SDS011;40833;53.238;6.576;2024-03-23T06:53:00;18.57;;;2.50;;
54929;SDS011;40833;53.238;6.576;2024-03-23T06:55:27;8.37;;;1.00;;
54929;SDS011;40833;53.238;6.576;2024-03-23T06:57:53;10.73;;;2.00;;
54929;SDS011;40833;53.238;6.576;2024-03-23T07:00:22;11.10;;;1.20;;
54929;SDS011;40833;53.238;6.576;2024-03-23T07:02:51;15.17;;;1.53;;
54929;SDS011;40833;53.238;6.576;2024-03-23T07:05:17;15.53;;;2.57;;
54929;SDS011;40833;53.238;6.576;2024-03-23T07:07:43;11.87;;;1.70;;
54929;SDS011;40833;53.238;6.576;2024-03-23T07:10:09;18.27;;;2.27;;
54929;SDS011;40833;53.238;6.576;2024-03-23T07:12:34;12.43;;;2.30;;
54929;SDS011;40833;53.238;6.576;2024-03-23T07:15:04;13.33;;;1.73;;
54929;SDS011;40833;53.238;6.576;2024-03-23T07:17:30;11.10;;;1.60;;
54929;SDS011;40833;53.238;6.576;2024-03-23T07:20:00;15.47;;;2.70;;
54929;SDS011;40833;53.238;6.576;2024-03-23T07:22:35;13.00;;;1.50;;
54929;SDS011;40833;53.238;6.576;2024-03-23T07:25:07;13.73;;;1.23;;
54929;SDS011;40833;53.238;6.576;2024-03-23T07:27:36;12.55;;;1.10;;
54929;SDS011;40833;53.238;6.576;2024-03-23T07:30:02;8.27;;;1.83;;
54929;SDS011;40833;53.238;6.576;2024-03-23T07:32:28;10.90;;;1.47;;
54929;SDS011;40833;53.238;6.576;2024-03-23T07:34:53;7.87;;;1.20;;
54929;SDS011;40833;53.238;6.576;2024-03-23T07:37:19;13.47;;;1.20;;
54929;SDS011;40833;53.238;6.576;2024-03-23T07:39:45;10.57;;;2.50;;
54929;SDS011;40833;53.238;6.576;2024-03-23T07:42:10;7.00;;;1.13;;
54929;SDS011;40833;53.238;6.576;2024-03-23T07:44:36;5.50;;;1.30;;
54929;SDS011;40833;53.238;6.576;2024-03-23T07:47:02;11.60;;;1.60;;
54929;SDS011;40833;53.238;6.576;2024-03-23T07:49:28;7.97;;;1.37;;
54929;SDS011;40833;53.238;6.576;2024-03-23T07:51:54;8.87;;;2.03;;
54929;SDS011;40833;53.238;6.576;2024-03-23T07:54:20;7.33;;;1.27;;
54929;SDS011;40833;53.238;6.576;2024-03-23T07:56:46;6.83;;;1.23;;
54929;SDS011;40833;53.238;6.576;2024-03-23T07:59:12;9.80;;;1.33;;
54929;SDS011;40833;53.238;6.576;2024-03-23T08:01:37;4.50;;;0.77;;
54929;SDS011;40833;53.238;6.576;2024-03-23T08:04:03;8.93;;;0.90;;
54929;SDS011;40833;53.238;6.576;2024-03-23T08:06:29;6.97;;;0.90;;
54929;SDS011;40833;53.238;6.576;2024-03-23T08:08:55;8.07;;;0.87;;
54929;SDS011;40833;53.238;6.576;2024-03-23T08:11:28;7.10;;;0.90;;
54929;SDS011;40833;53.238;6.576;2024-03-23T08:13:55;6.93;;;0.90;;
54929;SDS011;40833;53.238;6.576;2024-03-23T08:16:22;9.90;;;1.27;;
54929;SDS011;40833;53.238;6.576;2024-03-23T08:18:48;11.07;;;1.17;;
54929;SDS011;40833;53.238;6.576;2024-03-23T08:21:15;5.30;;;0.80;;
54929;SDS011;40833;53.238;6.576;2024-03-23T08:23:41;10.23;;;1.30;;
54929;SDS011;40833;53.238;6.576;2024-03-23T08:26:07;5.90;;;1.17;;
54929;SDS011;40833;53.238;6.576;2024-03-23T08:28:38;14.57;;;1.33;;
54929;SDS011;40833;53.238;6.576;2024-03-23T08:31:05;6.80;;;1.17;;
54929;SDS011;40833;53.238;6.576;2024-03-23T08:33:32;5.80;;;0.70;;
54929;SDS011;40833;53.238;6.576;2024-03-23T08:35:59;5.43;;;1.40;;
54929;SDS011;40833;53.238;6.576;2024-03-23T08:38:29;9.17;;;1.60;;
54929;SDS011;40833;53.238;6.576;2024-03-23T08:40:58;7.93;;;1.33;;
54929;SDS011;40833;53.238;6.576;2024-03-23T08:43:28;5.23;;;1.07;;
54929;SDS011;40833;53.238;6.576;2024-03-23T08:46:12;13.10;;;1.93;;
54929;SDS011;40833;53.238;6.576;2024-03-23T08:48:39;10.93;;;1.80;;
54929;SDS011;40833;53.238;6.576;2024-03-23T08:51:08;13.03;;;1.60;;
54929;SDS011;40833;53.238;6.576;2024-03-23T08:53:35;15.90;;;1.73;;
54929;SDS011;40833;53.238;6.576;2024-03-23T08:56:02;10.43;;;1.33;;
54929;SDS011;40833;53.238;6.576;2024-03-23T08:58:29;7.77;;;1.20;;
54929;SDS011;40833;53.238;6.576;2024-03-23T09:00:56;16.13;;;1.70;;
54929;SDS011;40833;53.238;6.576;2024-03-23T09:03:28;13.10;;;1.93;;
54929;SDS011;40833;53.238;6.576;2024-03-23T09:05:55;14.87;;;1.57;;
54929;SDS011;40833;53.238;6.576;2024-03-23T09:08:21;17.20;;;2.10;;
54929;SDS011;40833;53.238;6.576;2024-03-23T09:10:47;16.37;;;1.97;;
54929;SDS011;40833;53.238;6.576;2024-03-23T09:13:13;11.70;;;2.00;;
54929;SDS011;40833;53.238;6.576;2024-03-23T09:15:51;15.80;;;1.87;;
54929;SDS011;40833;53.238;6.576;2024-03-23T09:18:21;9.10;;;1.40;;
54929;SDS011;40833;53.238;6.576;2024-03-23T09:20:47;18.27;;;2.83;;
54929;SDS011;40833;53.238;6.576;2024-03-23T09:23:13;11.30;;;2.13;;
54929;SDS011;40833;53.238;6.576;2024-03-23T09:25:39;16.93;;;1.77;;
54929;SDS011;40833;53.238;6.576;2024-03-23T09:28:08;16.73;;;1.93;;
54929;SDS011;40833;53.238;6.576;2024-03-23T09:30:34;15.47;;;1.60;;
54929;SDS011;40833;53.238;6.576;2024-03-23T09:33:02;20.23;;;2.30;;
54929;SDS011;40833;53.238;6.576;2024-03-23T09:35:28;12.77;;;1.70;;
54929;SDS011;40833;53.238;6.576;2024-03-23T09:37:54;12.47;;;1.60;;
54929;SDS011;40833;53.238;6.576;2024-03-23T09:40:19;13.87;;;1.57;;
54929;SDS011;40833;53.238;6.576;2024-03-23T09:42:51;20.90;;;1.60;;
54929;SDS011;40833;53.238;6.576;2024-03-23T09:45:20;10.98;;;2.75;;
54929;SDS011;40833;53.238;6.576;2024-03-23T09:50:16;10.87;;;1.20;;
54929;SDS011;40833;53.238;6.576;2024-03-23T09:52:42;10.73;;;1.07;;
54929;SDS011;40833;53.238;6.576;2024-03-23T09:55:08;10.77;;;1.10;;
54929;SDS011;40833;53.238;6.576;2024-03-23T09:57:34;10.53;;;1.20;;
54929;SDS011;40833;53.238;6.576;2024-03-23T10:00:08;6.97;;;0.73;;
54929;SDS011;40833;53.238;6.576;2024-03-23T10:02:37;7.78;;;1.02;;
54929;SDS011;40833;53.238;6.576;2024-03-23T10:05:03;4.67;;;0.40;;
54929;SDS011;40833;53.238;6.576;2024-03-23T10:07:29;2.43;;;0.40;;
54929;SDS011;40833;53.238;6.576;2024-03-23T10:09:55;4.07;;;0.43;;
54929;SDS011;40833;53.238;6.576;2024-03-23T10:12:22;5.73;;;0.60;;
54929;SDS011;40833;53.238;6.576;2024-03-23T10:14:48;6.80;;;0.60;;
54929;SDS011;40833;53.238;6.576;2024-03-23T10:19:47;5.77;;;0.80;;
54929;SDS011;40833;53.238;6.576;2024-03-23T10:22:18;6.93;;;0.90;;
54929;SDS011;40833;53.238;6.576;2024-03-23T10:24:46;11.13;;;1.20;;
54929;SDS011;40833;53.238;6.576;2024-03-23T10:27:16;11.80;;;1.20;;
54929;SDS011;40833;53.238;6.576;2024-03-23T10:29:44;12.90;;;2.83;;
54929;SDS011;40833;53.238;6.576;2024-03-23T10:32:14;14.97;;;1.73;;
54929;SDS011;40833;53.238;6.576;2024-03-23T10:34:41;16.83;;;1.30;;
54929;SDS011;40833;53.238;6.576;2024-03-23T10:37:07;15.93;;;1.80;;
54929;SDS011;40833;53.238;6.576;2024-03-23T10:39:37;14.40;;;1.50;;
54929;SDS011;40833;53.238;6.576;2024-03-23T10:42:10;9.27;;;1.33;;
54929;SDS011;40833;53.238;6.576;2024-03-23T10:44:36;20.42;;;1.98;;
54929;SDS011;40833;53.238;6.576;2024-03-23T10:47:03;17.93;;;1.83;;
54929;SDS011;40833;53.238;6.576;2024-03-23T10:49:32;25.60;;;1.70;;
54929;SDS011;40833;53.238;6.576;2024-03-23T10:52:07;20.73;;;1.60;;
54929;SDS011;40833;53.238;6.576;2024-03-23T10:54:33;14.67;;;1.50;;
54929;SDS011;40833;53.238;6.576;2024-03-23T10:57:09;14.50;;;2.50;;
54929;SDS011;40833;53.238;6.576;2024-03-23T11:02:09;8.20;;;1.10;;
54929;SDS011;40833;53.238;6.576;2024-03-23T11:04:47;11.43;;;1.30;;
54929;SDS011;40833;53.238;6.576;2024-03-23T11:07:29;11.53;;;1.40;;
54929;SDS011;40833;53.238;6.576;2024-03-23T11:09:59;13.90;;;1.93;;
54929;SDS011;40833;53.238;6.576;2024-03-23T11:12:28;8.90;;;0.90;;
54929;SDS011;40833;53.238;6.576;2024-03-23T11:17:29;11.23;;;1.67;;
54929;SDS011;40833;53.238;6.576;2024-03-23T11:19:58;12.03;;;1.50;;
54929;SDS011;40833;53.238;6.576;2024-03-23T11:22:43;9.93;;;1.40;;
54929;SDS011;40833;53.238;6.576;2024-03-23T11:27:54;9.55;;;1.08;;
54929;SDS011;40833;53.238;6.576;2024-03-23T11:30:27;9.53;;;1.40;;
54929;SDS011;40833;53.238;6.576;2024-03-23T11:32:55;9.57;;;0.60;;
54929;SDS011;40833;53.238;6.576;2024-03-23T11:38:31;10.93;;;1.07;;
54929;SDS011;40833;53.238;6.576;2024-03-23T11:40:50;14.27;;;1.20;;
54929;SDS011;40833;53.238;6.576;2024-03-23T11:43:19;9.57;;;1.50;;
54929;SDS011;40833;53.238;6.576;2024-03-23T11:45:48;9.50;;;1.77;;
54929;SDS011;40833;53.238;6.576;2024-03-23T11:48:23;8.50;;;1.20;;
54929;SDS011;40833;53.238;6.576;2024-03-23T11:50:56;16.73;;;2.00;;
54929;SDS011;40833;53.238;6.576;2024-03-23T11:53:23;11.53;;;1.30;;
54929;SDS011;40833;53.238;6.576;2024-03-23T11:55:59;10.37;;;1.83;;
54929;SDS011;40833;53.238;6.576;2024-03-23T11:58:26;10.17;;;1.87;;
54929;SDS011;40833;53.238;6.576;2024-03-23T12:03:33;11.83;;;1.40;;
54929;SDS011;40833;53.238;6.576;2024-03-23T12:06:00;14.33;;;1.53;;
54929;SDS011;40833;53.238;6.576;2024-03-23T12:08:31;9.97;;;1.90;;
54929;SDS011;40833;53.238;6.576;2024-03-23T12:11:07;11.13;;;1.40;;
54929;SDS011;40833;53.238;6.576;2024-03-23T12:13:36;14.27;;;1.93;;
54929;SDS011;40833;53.238;6.576;2024-03-23T12:16:12;14.67;;;1.97;;
54929;SDS011;40833;53.238;6.576;2024-03-23T12:18:46;13.20;;;1.90;;
54929;SDS011;40833;53.238;6.576;2024-03-23T12:21:14;10.00;;;1.13;;
54929;SDS011;40833;53.238;6.576;2024-03-23T12:23:44;13.37;;;1.60;;
54929;SDS011;40833;53.238;6.576;2024-03-23T12:26:14;16.10;;;2.33;;
54929;SDS011;40833;53.238;6.576;2024-03-23T12:28:44;9.83;;;1.00;;
54929;SDS011;40833;53.238;6.576;2024-03-23T12:31:10;15.50;;;1.57;;
54929;SDS011;40833;53.238;6.576;2024-03-23T12:33:43;8.03;;;1.03;;
54929;SDS011;40833;53.238;6.576;2024-03-23T12:36:10;6.33;;;1.10;;
54929;SDS011;40833;53.238;6.576;2024-03-23T12:38:40;6.17;;;0.70;;
54929;SDS011;40833;53.238;6.576;2024-03-23T12:41:06;9.13;;;1.40;;
54929;SDS011;40833;53.238;6.576;2024-03-23T12:43:38;7.80;;;1.07;;
54929;SDS011;40833;53.238;6.576;2024-03-23T12:46:04;14.20;;;1.77;;
54929;SDS011;40833;53.238;6.576;2024-03-23T12:48:30;8.40;;;1.03;;
54929;SDS011;40833;53.238;6.576;2024-03-23T12:50:58;13.87;;;1.70;;
54929;SDS011;40833;53.238;6.576;2024-03-23T12:53:27;11.43;;;1.63;;
54929;SDS011;40833;53.238;6.576;2024-03-23T12:55:53;8.00;;;1.20;;
54929;SDS011;40833;53.238;6.576;2024-03-23T12:58:22;8.10;;;0.73;;
54929;SDS011;40833;53.238;6.576;2024-03-23T13:00:50;7.77;;;1.33;;
54929;SDS011;40833;53.238;6.576;2024-03-23T13:03:16;5.27;;;0.90;;
54929;SDS011;40833;53.238;6.576;2024-03-23T13:05:43;14.33;;;2.00;;
54929;SDS011;40833;53.238;6.576;2024-03-23T13:08:09;3.30;;;0.70;;
54929;SDS011;40833;53.238;6.576;2024-03-23T13:10:35;7.20;;;0.83;;
54929;SDS011;40833;53.238;6.576;2024-03-23T13:13:11;12.90;;;1.10;;
54929;SDS011;40833;53.238;6.576;2024-03-23T13:15:36;11.23;;;1.30;;
54929;SDS011;40833;53.238;6.576;2024-03-23T13:18:02;11.30;;;1.40;;
54929;SDS011;40833;53.238;6.576;2024-03-23T13:20:28;10.70;;;1.73;;
54929;SDS011;40833;53.238;6.576;2024-03-23T13:22:54;14.73;;;1.67;;
54929;SDS011;40833;53.238;6.576;2024-03-23T13:25:22;11.27;;;1.43;;
54929;SDS011;40833;53.238;6.576;2024-03-23T13:27:54;12.23;;;1.83;;
54929;SDS011;40833;53.238;6.576;2024-03-23T13:30:19;9.33;;;1.20;;
54929;SDS011;40833;53.238;6.576;2024-03-23T13:32:45;13.80;;;2.00;;
54929;SDS011;40833;53.238;6.576;2024-03-23T13:35:11;7.63;;;1.30;;
54929;SDS011;40833;53.238;6.576;2024-03-23T13:37:55;13.43;;;1.57;;
54929;SDS011;40833;53.238;6.576;2024-03-23T13:40:21;9.50;;;1.77;;
54929;SDS011;40833;53.238;6.576;2024-03-23T13:42:47;9.00;;;1.47;;
54929;SDS011;40833;53.238;6.576;2024-03-23T13:45:23;6.93;;;0.70;;
54929;SDS011;40833;53.238;6.576;2024-03-23T13:47:50;5.67;;;0.47;;
54929;SDS011;40833;53.238;6.576;2024-03-23T13:50:16;10.70;;;1.43;;
54929;SDS011;40833;53.238;6.576;2024-03-23T13:52:44;9.90;;;1.00;;
54929;SDS011;40833;53.238;6.576;2024-03-23T13:55:10;12.00;;;1.00;;
54929;SDS011;40833;53.238;6.576;2024-03-23T13:57:39;12.10;;;1.60;;
54929;SDS011;40833;53.238;6.576;2024-03-23T14:00:08;11.37;;;1.47;;
54929;SDS011;40833;53.238;6.576;2024-03-23T14:02:48;8.80;;;1.10;;
54929;SDS011;40833;53.238;6.576;2024-03-23T14:05:20;5.53;;;0.57;;
54929;SDS011;40833;53.238;6.576;2024-03-23T14:07:49;7.70;;;0.93;;
54929;SDS011;40833;53.238;6.576;2024-03-23T14:10:17;6.87;;;0.80;;
54929;SDS011;40833;53.238;6.576;2024-03-23T14:12:52;5.30;;;0.93;;
54929;SDS011;40833;53.238;6.576;2024-03-23T14:15:23;16.77;;;1.77;;
54929;SDS011;40833;53.238;6.576;2024-03-23T14:17:55;10.32;;;1.40;;
54929;SDS011;40833;53.238;6.576;2024-03-23T14:20:27;11.48;;;1.65;;
54929;SDS011;40833;53.238;6.576;2024-03-23T14:22:58;7.20;;;0.50;;
54929;SDS011;40833;53.238;6.576;2024-03-23T14:25:49;9.23;;;0.97;;
54929;SDS011;40833;53.238;6.576;2024-03-23T14:28:20;5.93;;;0.67;;
54929;SDS011;40833;53.238;6.576;2024-03-23T14:30:49;8.65;;;0.80;;
54929;SDS011;40833;53.238;6.576;2024-03-23T14:33:18;10.57;;;1.77;;
54929;SDS011;40833;53.238;6.576;2024-03-23T14:35:54;11.33;;;1.93;;
54929;SDS011;40833;53.238;6.576;2024-03-23T14:38:29;10.50;;;1.37;;
54929;SDS011;40833;53.238;6.576;2024-03-23T14:41:06;8.57;;;1.33;;
54929;SDS011;40833;53.238;6.576;2024-03-23T14:43:42;15.50;;;1.53;;
54929;SDS011;40833;53.238;6.576;2024-03-23T14:46:14;18.83;;;3.40;;
54929;SDS011;40833;53.238;6.576;2024-03-23T14:48:44;15.57;;;2.30;;
54929;SDS011;40833;53.238;6.576;2024-03-23T14:51:15;9.17;;;0.87;;
54929;SDS011;40833;53.238;6.576;2024-03-23T14:53:53;8.20;;;1.30;;
54929;SDS011;40833;53.238;6.576;2024-03-23T14:56:19;10.63;;;1.40;;
54929;SDS011;40833;53.238;6.576;2024-03-23T14:58:58;9.43;;;1.23;;
54929;SDS011;40833;53.238;6.576;2024-03-23T15:01:27;12.20;;;1.20;;
54929;SDS011;40833;53.238;6.576;2024-03-23T15:03:53;16.87;;;1.97;;
54929;SDS011;40833;53.238;6.576;2024-03-23T15:06:25;13.13;;;1.60;;
54929;SDS011;40833;53.238;6.576;2024-03-23T15:08:52;10.67;;;1.60;;
54929;SDS011;40833;53.238;6.576;2024-03-23T15:11:19;13.37;;;2.23;;
54929;SDS011;40833;53.238;6.576;2024-03-23T15:13:45;10.60;;;1.30;;
54929;SDS011;40833;53.238;6.576;2024-03-23T15:16:18;12.10;;;0.80;;
54929;SDS011;40833;53.238;6.576;2024-03-23T15:18:51;5.67;;;1.03;;
54929;SDS011;40833;53.238;6.576;2024-03-23T15:21:17;6.50;;;0.87;;
54929;SDS011;40833;53.238;6.576;2024-03-23T15:23:50;7.38;;;0.90;;
54929;SDS011;40833;53.238;6.576;2024-03-23T15:26:15;5.60;;;0.90;;
54929;SDS011;40833;53.238;6.576;2024-03-23T15:28:41;10.03;;;1.00;;
54929;SDS011;40833;53.238;6.576;2024-03-23T15:31:23;11.30;;;1.30;;
54929;SDS011;40833;53.238;6.576;2024-03-23T15:33:52;9.77;;;1.37;;
54929;SDS011;40833;53.238;6.576;2024-03-23T15:36:19;11.57;;;1.20;;
54929;SDS011;40833;53.238;6.576;2024-03-23T15:38:45;8.87;;;1.03;;
54929;SDS011;40833;53.238;6.576;2024-03-23T15:41:11;9.63;;;1.70;;
54929;SDS011;40833;53.238;6.576;2024-03-23T15:43:37;14.40;;;1.67;;
54929;SDS011;40833;53.238;6.576;2024-03-23T15:46:04;13.57;;;1.87;;
54929;SDS011;40833;53.238;6.576;2024-03-23T15:48:38;14.07;;;1.20;;
54929;SDS011;40833;53.238;6.576;2024-03-23T15:51:11;12.10;;;1.53;;
54929;SDS011;40833;53.238;6.576;2024-03-23T15:53:45;13.20;;;1.60;;
54929;SDS011;40833;53.238;6.576;2024-03-23T15:56:11;13.30;;;1.57;;